createdAt,value
2018-09-13T21:22:41.681Z,11.84
2018-09-13T21:23:41.520Z,11.96
2018-09-13T21:24:41.330Z,12.01
2018-09-13T21:25:41.219Z,12.03
2018-09-13T21:26:41.195Z,11.97
2018-09-13T21:27:41.116Z,11.90
2018-09-13T21:28:41.322Z,11.88
2018-09-13T21:29:41.346Z,11.84
2018-09-13T21:30:40.932Z,11.90
2018-09-13T21:31:40.907Z,11.87
2018-09-13T21:32:41.062Z,12.05
2018-09-13T21:33:40.806Z,12.04
2018-09-13T21:34:40.848Z,12.03
2018-09-13T21:35:40.798Z,11.97
2018-09-13T21:36:41.104Z,11.79
2018-09-13T21:37:41.124Z,11.82
2018-09-13T21:38:40.589Z,11.82
2018-09-13T21:39:40.543Z,11.84
2018-09-13T21:40:40.501Z,11.70
2018-09-13T21:41:40.465Z,11.63
2018-09-13T21:42:40.416Z,11.69
2018-09-13T21:43:40.680Z,11.66
2018-09-13T21:44:40.432Z,11.51
2018-09-13T21:45:40.341Z,11.66
2018-09-13T21:46:40.244Z,11.66
2018-09-13T21:47:40.244Z,11.69
2018-09-13T21:48:40.161Z,11.67
2018-09-13T21:49:40.459Z,11.70
2018-09-13T21:50:40.572Z,11.78
2018-09-13T21:51:40.025Z,11.77
2018-09-13T21:52:39.985Z,11.72
2018-09-13T21:53:39.940Z,11.77
2018-09-13T21:54:39.897Z,11.79
2018-09-13T21:55:39.852Z,11.70
2018-09-13T21:56:39.809Z,11.74
2018-09-13T21:57:40.015Z,11.66
2018-09-13T21:58:39.721Z,11.48
2018-09-13T21:59:39.679Z,11.54
2018-09-13T22:00:39.635Z,11.49
2018-09-13T22:01:39.604Z,11.48
2018-09-13T22:02:39.549Z,11.53
2018-09-13T22:03:39.506Z,11.51
2018-09-13T22:04:39.713Z,11.60
2018-09-13T22:05:39.622Z,11.57
2018-09-13T22:06:39.376Z,11.64
2018-09-13T22:07:39.344Z,11.51
2018-09-13T22:08:39.291Z,11.46
2018-09-13T22:09:39.252Z,11.53
2018-09-13T22:10:39.202Z,11.60
2018-09-13T22:11:39.812Z,11.64
2018-09-13T22:12:39.133Z,11.57
2018-09-13T22:13:39.095Z,11.49
2018-09-13T22:14:39.030Z,11.45
2018-09-13T22:15:38.985Z,11.46
2018-09-13T22:16:38.947Z,11.41
2018-09-13T22:17:38.906Z,11.33
2018-09-13T22:18:39.168Z,11.23
2018-09-13T22:19:38.812Z,11.27
2018-09-13T22:20:38.768Z,11.23
2018-09-13T22:21:38.729Z,11.05
2018-09-13T22:22:38.679Z,11.08
2018-09-13T22:23:38.977Z,10.99
2018-09-13T22:24:38.595Z,11.08
2018-09-13T22:25:38.803Z,11.12
2018-09-13T22:26:38.507Z,11.03
2018-09-13T22:27:38.477Z,10.98
2018-09-13T22:28:38.426Z,10.91
2018-09-13T22:29:38.381Z,10.94
2018-09-13T22:30:38.341Z,10.87
2018-09-13T22:31:38.294Z,10.94
2018-09-13T22:32:38.511Z,10.91
2018-09-13T22:33:38.205Z,10.99
2018-09-13T22:34:38.159Z,10.93
2018-09-13T22:35:38.121Z,10.86
2018-09-13T22:36:38.074Z,10.94
2018-09-13T22:37:38.033Z,10.93
2018-09-13T22:38:37.986Z,10.95
2018-09-13T22:39:38.243Z,11.02
2018-09-13T22:40:37.956Z,10.93
2018-09-13T22:41:37.857Z,10.90
2018-09-13T22:42:37.824Z,11.01
2018-09-13T22:43:37.767Z,10.98
2018-09-13T22:44:37.727Z,10.93
2018-09-13T22:45:37.690Z,10.90
2018-09-13T22:46:37.936Z,10.93
2018-09-13T22:47:37.595Z,10.94
2018-09-13T22:48:37.553Z,10.95
2018-09-13T22:49:37.514Z,10.84
2018-09-13T22:50:37.470Z,10.69
2018-09-13T22:51:37.422Z,10.78
2018-09-13T22:52:37.378Z,10.87
2018-09-13T22:53:37.636Z,10.68
2018-09-13T22:54:37.292Z,10.70
2018-09-13T22:55:37.253Z,10.65
2018-09-13T22:56:37.204Z,10.66
2018-09-13T22:57:37.162Z,10.63
2018-09-13T22:58:37.118Z,10.52
2018-09-13T22:59:37.077Z,10.69
2018-09-13T23:00:37.280Z,10.55
2018-09-13T23:01:36.986Z,10.54
2018-09-13T23:02:36.941Z,10.58
2018-09-13T23:03:36.897Z,10.46
2018-09-13T23:04:36.856Z,10.44
2018-09-13T23:05:36.815Z,10.31
2018-09-13T23:06:36.771Z,10.35
2018-09-13T23:07:37.025Z,10.46
2018-09-13T23:08:36.689Z,10.54
2018-09-13T23:09:36.639Z,10.49
2018-09-13T23:10:36.596Z,10.47
2018-09-13T23:11:36.548Z,10.43
2018-09-13T23:12:36.758Z,10.46
2018-09-13T23:13:36.479Z,10.29
2018-09-13T23:14:36.719Z,10.31
2018-09-13T23:15:36.376Z,10.26
2018-09-13T23:16:36.333Z,10.22
2018-09-13T23:17:36.334Z,10.20
2018-09-13T23:18:36.502Z,10.14
2018-09-13T23:19:36.202Z,10.17
2018-09-13T23:20:36.163Z,10.25
2018-09-13T23:21:36.363Z,10.26
2018-09-13T23:22:36.070Z,10.10
2018-09-13T23:23:36.031Z,10.10
2018-09-13T23:24:35.984Z,10.10
2018-09-13T23:25:35.942Z,10.06
2018-09-13T23:26:35.896Z,9.96
2018-09-13T23:27:35.855Z,9.89
2018-09-13T23:28:36.058Z,9.93
2018-09-13T23:29:35.865Z,9.98
2018-09-13T23:30:35.719Z,10.07
2018-09-13T23:31:35.682Z,10.01
2018-09-13T23:32:35.634Z,9.95
2018-09-13T23:33:35.591Z,10.02
2018-09-13T23:34:35.547Z,9.93
2018-09-13T23:35:35.918Z,9.92
2018-09-13T23:36:35.460Z,9.91
2018-09-13T23:37:35.417Z,9.91
2018-09-13T23:38:35.372Z,9.91
2018-09-13T23:39:35.841Z,9.91
2018-09-13T23:40:35.349Z,9.88
2018-09-13T23:41:35.594Z,9.95
2018-09-13T23:42:35.447Z,9.89
2018-09-13T23:43:35.160Z,9.81
2018-09-13T23:44:35.109Z,9.75
2018-09-13T23:45:35.069Z,9.92
2018-09-13T23:46:35.024Z,9.80
2018-09-13T23:47:34.980Z,9.80
2018-09-13T23:48:34.934Z,9.85
2018-09-13T23:49:35.192Z,9.99
2018-09-13T23:50:34.848Z,10.09
2018-09-13T23:51:34.804Z,10.04
2018-09-13T23:52:34.787Z,9.98
2018-09-13T23:53:34.717Z,10.04
2018-09-13T23:54:34.673Z,10.04
2018-09-13T23:55:34.631Z,9.93
2018-09-13T23:56:34.835Z,9.92
2018-09-13T23:57:34.791Z,9.88
2018-09-13T23:58:34.499Z,9.88
2018-09-13T23:59:34.455Z,9.93
